sensor_id;sensor_type;location;lat;lon;timestamp;P1;durP1;ratioP1;P2;durP2;ratioP2
51738;SDS011;37815;52.692;6.226;2024-02-23T00:04:51;0.60;;;0.60;;
51738;SDS011;37815;52.692;6.226;2024-02-23T00:09:52;0.20;;;0.17;;
51738;SDS011;37815;52.692;6.226;2024-02-23T00:14:53;1.10;;;0.22;;
51738;SDS011;37815;52.692;6.226;2024-02-23T00:19:53;0.10;;;0.10;;
51738;SDS011;37815;52.692;6.226;2024-02-23T00:24:54;1.25;;;0.10;;
51738;SDS011;37815;52.692;6.226;2024-02-23T00:29:54;0.77;;;0.20;;
51738;SDS011;37815;52.692;6.226;2024-02-23T00:34:56;1.10;;;0.30;;
51738;SDS011;37815;52.692;6.226;2024-02-23T00:39:57;0.30;;;0.10;;
51738;SDS011;37815;52.692;6.226;2024-02-23T00:44:58;0.70;;;0.20;;
51738;SDS011;37815;52.692;6.226;2024-02-23T00:49:59;0.30;;;0.20;;
51738;SDS011;37815;52.692;6.226;2024-02-23T00:55:00;0.40;;;0.20;;
51738;SDS011;37815;52.692;6.226;2024-02-23T01:00:00;2.05;;;0.10;;
51738;SDS011;37815;52.692;6.226;2024-02-23T01:05:03;0.50;;;0.20;;
51738;SDS011;37815;52.692;6.226;2024-02-23T01:10:04;0.20;;;0.10;;
51738;SDS011;37815;52.692;6.226;2024-02-23T01:15:05;0.10;;;0.10;;
51738;SDS011;37815;52.692;6.226;2024-02-23T01:20:06;1.13;;;0.22;;
51738;SDS011;37815;52.692;6.226;2024-02-23T01:25:07;0.50;;;0.20;;
51738;SDS011;37815;52.692;6.226;2024-02-23T01:30:08;1.50;;;0.20;;
51738;SDS011;37815;52.692;6.226;2024-02-23T01:35:09;0.22;;;0.22;;
51738;SDS011;37815;52.692;6.226;2024-02-23T01:40:09;0.32;;;0.17;;
51738;SDS011;37815;52.692;6.226;2024-02-23T01:45:10;1.52;;;0.20;;
51738;SDS011;37815;52.692;6.226;2024-02-23T01:50:10;0.60;;;0.25;;
51738;SDS011;37815;52.692;6.226;2024-02-23T01:55:12;1.65;;;0.30;;
51738;SDS011;37815;52.692;6.226;2024-02-23T02:00:17;0.60;;;0.20;;
51738;SDS011;37815;52.692;6.226;2024-02-23T02:05:18;0.82;;;0.30;;
51738;SDS011;37815;52.692;6.226;2024-02-23T02:10:19;1.55;;;0.30;;
51738;SDS011;37815;52.692;6.226;2024-02-23T02:15:20;0.82;;;0.30;;
51738;SDS011;37815;52.692;6.226;2024-02-23T02:20:24;1.35;;;0.30;;
51738;SDS011;37815;52.692;6.226;2024-02-23T02:25:28;0.82;;;0.38;;
51738;SDS011;37815;52.692;6.226;2024-02-23T02:30:29;1.27;;;0.45;;
51738;SDS011;37815;52.692;6.226;2024-02-23T02:35:29;1.30;;;0.30;;
51738;SDS011;37815;52.692;6.226;2024-02-23T02:40:30;1.85;;;0.40;;
51738;SDS011;37815;52.692;6.226;2024-02-23T02:45:31;0.55;;;0.40;;
51738;SDS011;37815;52.692;6.226;2024-02-23T02:50:32;1.58;;;0.40;;
51738;SDS011;37815;52.692;6.226;2024-02-23T02:55:33;2.30;;;0.50;;
51738;SDS011;37815;52.692;6.226;2024-02-23T03:00:33;1.13;;;0.60;;
51738;SDS011;37815;52.692;6.226;2024-02-23T03:05:34;1.85;;;0.50;;
51738;SDS011;37815;52.692;6.226;2024-02-23T03:10:34;3.03;;;0.40;;
51738;SDS011;37815;52.692;6.226;2024-02-23T03:15:35;3.08;;;0.60;;
51738;SDS011;37815;52.692;6.226;2024-02-23T03:20:36;3.15;;;0.50;;
51738;SDS011;37815;52.692;6.226;2024-02-23T03:25:36;3.15;;;0.40;;
51738;SDS011;37815;52.692;6.226;2024-02-23T03:30:37;2.47;;;0.40;;
51738;SDS011;37815;52.692;6.226;2024-02-23T03:35:38;4.03;;;0.60;;
51738;SDS011;37815;52.692;6.226;2024-02-23T03:40:38;2.47;;;0.70;;
51738;SDS011;37815;52.692;6.226;2024-02-23T03:45:39;1.27;;;0.32;;
51738;SDS011;37815;52.692;6.226;2024-02-23T03:50:39;1.02;;;0.40;;
51738;SDS011;37815;52.692;6.226;2024-02-23T03:55:40;2.72;;;0.40;;
51738;SDS011;37815;52.692;6.226;2024-02-23T04:00:43;3.97;;;0.57;;
51738;SDS011;37815;52.692;6.226;2024-02-23T04:05:43;2.33;;;0.43;;
51738;SDS011;37815;52.692;6.226;2024-02-23T04:10:44;2.53;;;0.95;;
51738;SDS011;37815;52.692;6.226;2024-02-23T04:15:44;3.10;;;0.60;;
51738;SDS011;37815;52.692;6.226;2024-02-23T04:20:45;2.22;;;0.63;;
51738;SDS011;37815;52.692;6.226;2024-02-23T04:25:46;2.38;;;0.57;;
51738;SDS011;37815;52.692;6.226;2024-02-23T04:30:46;1.98;;;0.65;;
51738;SDS011;37815;52.692;6.226;2024-02-23T04:35:47;2.75;;;0.82;;
51738;SDS011;37815;52.692;6.226;2024-02-23T04:40:47;3.10;;;0.90;;
51738;SDS011;37815;52.692;6.226;2024-02-23T04:45:48;3.03;;;0.88;;
51738;SDS011;37815;52.692;6.226;2024-02-23T04:50:48;2.30;;;0.80;;
51738;SDS011;37815;52.692;6.226;2024-02-23T04:55:49;3.60;;;0.90;;
51738;SDS011;37815;52.692;6.226;2024-02-23T05:00:50;3.30;;;0.95;;
51738;SDS011;37815;52.692;6.226;2024-02-23T05:05:50;2.38;;;1.20;;
51738;SDS011;37815;52.692;6.226;2024-02-23T05:10:53;4.22;;;1.17;;
51738;SDS011;37815;52.692;6.226;2024-02-23T05:15:55;2.33;;;1.20;;
51738;SDS011;37815;52.692;6.226;2024-02-23T05:20:57;3.47;;;1.00;;
51738;SDS011;37815;52.692;6.226;2024-02-23T05:25:57;3.05;;;1.27;;
51738;SDS011;37815;52.692;6.226;2024-02-23T05:30:58;3.13;;;1.33;;
51738;SDS011;37815;52.692;6.226;2024-02-23T05:35:58;3.75;;;1.40;;
51738;SDS011;37815;52.692;6.226;2024-02-23T05:40:59;5.43;;;1.42;;
51738;SDS011;37815;52.692;6.226;2024-02-23T05:45:59;4.78;;;1.50;;
51738;SDS011;37815;52.692;6.226;2024-02-23T05:51:00;2.55;;;1.42;;
51738;SDS011;37815;52.692;6.226;2024-02-23T05:56:01;3.10;;;1.30;;
51738;SDS011;37815;52.692;6.226;2024-02-23T06:01:01;3.97;;;1.63;;
51738;SDS011;37815;52.692;6.226;2024-02-23T06:06:06;2.42;;;1.50;;
51738;SDS011;37815;52.692;6.226;2024-02-23T06:11:09;3.92;;;1.42;;
51738;SDS011;37815;52.692;6.226;2024-02-23T06:16:10;3.28;;;1.73;;
51738;SDS011;37815;52.692;6.226;2024-02-23T06:21:12;3.53;;;1.45;;
51738;SDS011;37815;52.692;6.226;2024-02-23T06:26:13;3.55;;;1.63;;
51738;SDS011;37815;52.692;6.226;2024-02-23T06:31:14;5.60;;;1.55;;
51738;SDS011;37815;52.692;6.226;2024-02-23T06:36:15;3.35;;;1.58;;
51738;SDS011;37815;52.692;6.226;2024-02-23T06:41:16;3.45;;;2.00;;
51738;SDS011;37815;52.692;6.226;2024-02-23T06:46:18;4.63;;;1.98;;
51738;SDS011;37815;52.692;6.226;2024-02-23T06:51:19;4.05;;;1.90;;
51738;SDS011;37815;52.692;6.226;2024-02-23T06:56:20;3.83;;;1.98;;
51738;SDS011;37815;52.692;6.226;2024-02-23T07:01:21;2.88;;;1.75;;
51738;SDS011;37815;52.692;6.226;2024-02-23T07:06:21;4.13;;;1.63;;
51738;SDS011;37815;52.692;6.226;2024-02-23T07:11:22;5.80;;;2.17;;
51738;SDS011;37815;52.692;6.226;2024-02-23T07:16:22;3.60;;;1.73;;
51738;SDS011;37815;52.692;6.226;2024-02-23T07:21:23;5.25;;;1.90;;
51738;SDS011;37815;52.692;6.226;2024-02-23T07:26:23;5.35;;;2.00;;
51738;SDS011;37815;52.692;6.226;2024-02-23T07:31:24;7.03;;;2.13;;
51738;SDS011;37815;52.692;6.226;2024-02-23T07:36:25;3.88;;;1.80;;
51738;SDS011;37815;52.692;6.226;2024-02-23T07:41:25;2.42;;;1.63;;
51738;SDS011;37815;52.692;6.226;2024-02-23T07:46:26;3.97;;;1.58;;
51738;SDS011;37815;52.692;6.226;2024-02-23T07:51:27;8.77;;;1.77;;
51738;SDS011;37815;52.692;6.226;2024-02-23T07:56:27;4.32;;;1.60;;
51738;SDS011;37815;52.692;6.226;2024-02-23T08:01:29;2.67;;;1.50;;
51738;SDS011;37815;52.692;6.226;2024-02-23T08:06:30;2.97;;;1.40;;
51738;SDS011;37815;52.692;6.226;2024-02-23T08:11:30;2.80;;;1.33;;
51738;SDS011;37815;52.692;6.226;2024-02-23T08:16:31;3.28;;;1.65;;
51738;SDS011;37815;52.692;6.226;2024-02-23T08:21:32;2.15;;;1.20;;
51738;SDS011;37815;52.692;6.226;2024-02-23T08:26:33;5.43;;;1.40;;
51738;SDS011;37815;52.692;6.226;2024-02-23T08:31:34;3.63;;;1.50;;
51738;SDS011;37815;52.692;6.226;2024-02-23T08:36:34;5.10;;;1.33;;
51738;SDS011;37815;52.692;6.226;2024-02-23T08:41:37;2.38;;;1.00;;
51738;SDS011;37815;52.692;6.226;2024-02-23T08:46:38;2.88;;;1.20;;
51738;SDS011;37815;52.692;6.226;2024-02-23T08:51:40;2.92;;;1.08;;
51738;SDS011;37815;52.692;6.226;2024-02-23T08:56:40;1.60;;;0.95;;
51738;SDS011;37815;52.692;6.226;2024-02-23T09:01:42;5.35;;;1.08;;
51738;SDS011;37815;52.692;6.226;2024-02-23T09:06:44;1.42;;;0.90;;
51738;SDS011;37815;52.692;6.226;2024-02-23T09:11:45;3.90;;;1.20;;
51738;SDS011;37815;52.692;6.226;2024-02-23T09:16:46;6.43;;;1.20;;
51738;SDS011;37815;52.692;6.226;2024-02-23T09:21:47;4.13;;;1.27;;
51738;SDS011;37815;52.692;6.226;2024-02-23T09:26:48;1.95;;;0.90;;
51738;SDS011;37815;52.692;6.226;2024-02-23T09:31:48;2.70;;;0.80;;
51738;SDS011;37815;52.692;6.226;2024-02-23T09:36:49;4.30;;;1.02;;
51738;SDS011;37815;52.692;6.226;2024-02-23T09:41:49;2.45;;;0.98;;
51738;SDS011;37815;52.692;6.226;2024-02-23T09:46:51;7.18;;;0.95;;
51738;SDS011;37815;52.692;6.226;2024-02-23T09:51:51;4.85;;;1.10;;
51738;SDS011;37815;52.692;6.226;2024-02-23T09:56:54;6.03;;;1.02;;
51738;SDS011;37815;52.692;6.226;2024-02-23T10:01:55;2.67;;;0.80;;
51738;SDS011;37815;52.692;6.226;2024-02-23T10:06:56;4.63;;;0.90;;
51738;SDS011;37815;52.692;6.226;2024-02-23T10:11:57;3.25;;;0.98;;
51738;SDS011;37815;52.692;6.226;2024-02-23T10:16:57;3.25;;;0.85;;
51738;SDS011;37815;52.692;6.226;2024-02-23T10:21:58;3.25;;;0.95;;
51738;SDS011;37815;52.692;6.226;2024-02-23T10:27:00;3.58;;;0.70;;
51738;SDS011;37815;52.692;6.226;2024-02-23T10:32:01;2.22;;;0.57;;
51738;SDS011;37815;52.692;6.226;2024-02-23T10:37:03;3.85;;;0.95;;
51738;SDS011;37815;52.692;6.226;2024-02-23T10:42:07;7.97;;;1.00;;
51738;SDS011;37815;52.692;6.226;2024-02-23T10:47:09;0.77;;;0.57;;
51738;SDS011;37815;52.692;6.226;2024-02-23T10:52:11;3.28;;;0.90;;
51738;SDS011;37815;52.692;6.226;2024-02-23T10:57:15;1.95;;;0.70;;
51738;SDS011;37815;52.692;6.226;2024-02-23T11:02:18;1.55;;;0.60;;
51738;SDS011;37815;52.692;6.226;2024-02-23T11:07:20;3.45;;;0.80;;
51738;SDS011;37815;52.692;6.226;2024-02-23T11:12:22;3.65;;;0.47;;
51738;SDS011;37815;52.692;6.226;2024-02-23T11:17:30;4.00;;;0.90;;
51738;SDS011;37815;52.692;6.226;2024-02-23T11:22:33;2.50;;;0.73;;
51738;SDS011;37815;52.692;6.226;2024-02-23T11:27:38;2.88;;;0.70;;
51738;SDS011;37815;52.692;6.226;2024-02-23T11:32:45;2.25;;;0.70;;
51738;SDS011;37815;52.692;6.226;2024-02-23T11:37:48;1.60;;;0.60;;
51738;SDS011;37815;52.692;6.226;2024-02-23T11:42:58;5.00;;;0.80;;
51738;SDS011;37815;52.692;6.226;2024-02-23T11:48:00;1.77;;;0.55;;
51738;SDS011;37815;52.692;6.226;2024-02-23T11:53:01;4.28;;;0.88;;
51738;SDS011;37815;52.692;6.226;2024-02-23T11:58:03;2.08;;;0.80;;
51738;SDS011;37815;52.692;6.226;2024-02-23T12:03:06;1.48;;;0.55;;
51738;SDS011;37815;52.692;6.226;2024-02-23T12:08:07;2.58;;;0.60;;
51738;SDS011;37815;52.692;6.226;2024-02-23T12:13:08;1.25;;;0.80;;
51738;SDS011;37815;52.692;6.226;2024-02-23T12:18:10;2.95;;;0.70;;
51738;SDS011;37815;52.692;6.226;2024-02-23T12:23:11;2.92;;;0.80;;
51738;SDS011;37815;52.692;6.226;2024-02-23T12:28:12;1.23;;;0.70;;
51738;SDS011;37815;52.692;6.226;2024-02-23T12:33:18;1.52;;;0.60;;
51738;SDS011;37815;52.692;6.226;2024-02-23T12:38:20;1.25;;;0.70;;
51738;SDS011;37815;52.692;6.226;2024-02-23T12:43:21;1.98;;;0.82;;
51738;SDS011;37815;52.692;6.226;2024-02-23T12:48:24;2.50;;;0.80;;
51738;SDS011;37815;52.692;6.226;2024-02-23T12:53:32;3.90;;;0.77;;
51738;SDS011;37815;52.692;6.226;2024-02-23T12:58:34;2.35;;;0.80;;
51738;SDS011;37815;52.692;6.226;2024-02-23T13:03:37;2.65;;;1.02;;
51738;SDS011;37815;52.692;6.226;2024-02-23T13:08:40;2.10;;;0.80;;
51738;SDS011;37815;52.692;6.226;2024-02-23T13:13:42;1.60;;;0.65;;
51738;SDS011;37815;52.692;6.226;2024-02-23T13:18:43;1.88;;;0.70;;
51738;SDS011;37815;52.692;6.226;2024-02-23T13:23:43;1.50;;;0.77;;
51738;SDS011;37815;52.692;6.226;2024-02-23T13:28:44;3.58;;;1.05;;
51738;SDS011;37815;52.692;6.226;2024-02-23T13:33:45;2.78;;;0.63;;
51738;SDS011;37815;52.692;6.226;2024-02-23T13:38:45;5.18;;;1.20;;
51738;SDS011;37815;52.692;6.226;2024-02-23T13:43:46;2.90;;;1.00;;
51738;SDS011;37815;52.692;6.226;2024-02-23T13:48:48;2.90;;;1.10;;
51738;SDS011;37815;52.692;6.226;2024-02-23T13:54:09;2.45;;;1.25;;
51738;SDS011;37815;52.692;6.226;2024-02-23T13:59:11;2.92;;;1.08;;
51738;SDS011;37815;52.692;6.226;2024-02-23T14:04:11;1.85;;;0.75;;
51738;SDS011;37815;52.692;6.226;2024-02-23T14:09:14;1.38;;;0.88;;
51738;SDS011;37815;52.692;6.226;2024-02-23T14:14:15;2.35;;;1.10;;
51738;SDS011;37815;52.692;6.226;2024-02-23T14:19:16;5.03;;;1.00;;
51738;SDS011;37815;52.692;6.226;2024-02-23T14:24:20;3.78;;;1.00;;
51738;SDS011;37815;52.692;6.226;2024-02-23T14:29:21;2.65;;;1.00;;
51738;SDS011;37815;52.692;6.226;2024-02-23T14:34:21;2.83;;;1.15;;
51738;SDS011;37815;52.692;6.226;2024-02-23T14:39:23;2.25;;;1.00;;
51738;SDS011;37815;52.692;6.226;2024-02-23T14:44:24;2.10;;;1.02;;
51738;SDS011;37815;52.692;6.226;2024-02-23T14:49:33;2.20;;;1.00;;
51738;SDS011;37815;52.692;6.226;2024-02-23T14:54:34;2.40;;;1.02;;
51738;SDS011;37815;52.692;6.226;2024-02-23T14:59:34;5.53;;;1.38;;
51738;SDS011;37815;52.692;6.226;2024-02-23T15:04:36;2.88;;;1.20;;
51738;SDS011;37815;52.692;6.226;2024-02-23T15:09:36;3.53;;;1.30;;
51738;SDS011;37815;52.692;6.226;2024-02-23T15:14:37;2.35;;;1.23;;
51738;SDS011;37815;52.692;6.226;2024-02-23T15:19:37;3.00;;;1.38;;
51738;SDS011;37815;52.692;6.226;2024-02-23T15:24:38;3.25;;;1.30;;
51738;SDS011;37815;52.692;6.226;2024-02-23T15:29:39;2.53;;;1.23;;
51738;SDS011;37815;52.692;6.226;2024-02-23T15:34:39;2.45;;;1.40;;
51738;SDS011;37815;52.692;6.226;2024-02-23T15:39:40;5.72;;;1.38;;
51738;SDS011;37815;52.692;6.226;2024-02-23T15:44:41;2.45;;;1.10;;
51738;SDS011;37815;52.692;6.226;2024-02-23T15:49:42;3.97;;;1.50;;
51738;SDS011;37815;52.692;6.226;2024-02-23T15:54:42;6.80;;;2.35;;
51738;SDS011;37815;52.692;6.226;2024-02-23T15:59:44;3.65;;;1.58;;
51738;SDS011;37815;52.692;6.226;2024-02-23T16:04:45;2.13;;;1.75;;
51738;SDS011;37815;52.692;6.226;2024-02-23T16:09:46;2.92;;;1.30;;
51738;SDS011;37815;52.692;6.226;2024-02-23T16:14:46;2.47;;;1.40;;
51738;SDS011;37815;52.692;6.226;2024-02-23T16:19:47;1.77;;;1.00;;
51738;SDS011;37815;52.692;6.226;2024-02-23T16:24:48;5.25;;;1.45;;
51738;SDS011;37815;52.692;6.226;2024-02-23T16:29:48;4.55;;;1.45;;
51738;SDS011;37815;52.692;6.226;2024-02-23T16:34:49;3.63;;;1.38;;
51738;SDS011;37815;52.692;6.226;2024-02-23T16:39:50;3.50;;;1.33;;
51738;SDS011;37815;52.692;6.226;2024-02-23T16:44:50;2.90;;;1.20;;
51738;SDS011;37815;52.692;6.226;2024-02-23T16:49:51;3.70;;;1.30;;
51738;SDS011;37815;52.692;6.226;2024-02-23T16:54:51;2.35;;;1.40;;
51738;SDS011;37815;52.692;6.226;2024-02-23T16:59:52;3.13;;;1.48;;
51738;SDS011;37815;52.692;6.226;2024-02-23T17:04:53;2.95;;;1.35;;
51738;SDS011;37815;52.692;6.226;2024-02-23T17:09:54;2.83;;;1.20;;
51738;SDS011;37815;52.692;6.226;2024-02-23T17:14:55;4.20;;;1.30;;
51738;SDS011;37815;52.692;6.226;2024-02-23T17:19:58;1.45;;;0.73;;
51738;SDS011;37815;52.692;6.226;2024-02-23T17:24:58;2.88;;;1.10;;
51738;SDS011;37815;52.692;6.226;2024-02-23T17:29:59;2.13;;;1.02;;
51738;SDS011;37815;52.692;6.226;2024-02-23T17:35:00;1.63;;;0.90;;
51738;SDS011;37815;52.692;6.226;2024-02-23T17:40:01;3.08;;;0.90;;
51738;SDS011;37815;52.692;6.226;2024-02-23T17:45:02;3.67;;;1.27;;
51738;SDS011;37815;52.692;6.226;2024-02-23T17:50:03;1.50;;;1.10;;
51738;SDS011;37815;52.692;6.226;2024-02-23T17:55:05;3.88;;;1.08;;
51738;SDS011;37815;52.692;6.226;2024-02-23T18:00:06;2.13;;;0.95;;
51738;SDS011;37815;52.692;6.226;2024-02-23T18:05:07;3.10;;;0.98;;
51738;SDS011;37815;52.692;6.226;2024-02-23T18:10:07;3.95;;;1.10;;
51738;SDS011;37815;52.692;6.226;2024-02-23T18:15:08;1.85;;;0.90;;
51738;SDS011;37815;52.692;6.226;2024-02-23T18:20:10;2.88;;;1.10;;
51738;SDS011;37815;52.692;6.226;2024-02-23T18:25:11;2.35;;;1.00;;
51738;SDS011;37815;52.692;6.226;2024-02-23T18:30:12;3.35;;;1.20;;
51738;SDS011;37815;52.692;6.226;2024-02-23T18:35:12;1.30;;;0.90;;
51738;SDS011;37815;52.692;6.226;2024-02-23T18:40:13;4.63;;;1.00;;
51738;SDS011;37815;52.692;6.226;2024-02-23T18:45:14;3.80;;;1.10;;
51738;SDS011;37815;52.692;6.226;2024-02-23T18:50:18;1.42;;;0.90;;
51738;SDS011;37815;52.692;6.226;2024-02-23T18:55:19;5.63;;;1.38;;
51738;SDS011;37815;52.692;6.226;2024-02-23T19:00:21;2.65;;;1.25;;
51738;SDS011;37815;52.692;6.226;2024-02-23T19:05:22;2.25;;;1.10;;
51738;SDS011;37815;52.692;6.226;2024-02-23T19:10:22;3.20;;;1.13;;
51738;SDS011;37815;52.692;6.226;2024-02-23T19:15:23;4.32;;;1.27;;
51738;SDS011;37815;52.692;6.226;2024-02-23T19:20:25;4.25;;;0.93;;
51738;SDS011;37815;52.692;6.226;2024-02-23T19:25:25;4.40;;;1.10;;
51738;SDS011;37815;52.692;6.226;2024-02-23T19:30:26;2.78;;;1.25;;
51738;SDS011;37815;52.692;6.226;2024-02-23T19:35:29;4.28;;;1.08;;
51738;SDS011;37815;52.692;6.226;2024-02-23T19:40:29;2.72;;;0.90;;
51738;SDS011;37815;52.692;6.226;2024-02-23T19:45:30;2.25;;;1.00;;
51738;SDS011;37815;52.692;6.226;2024-02-23T19:50:30;1.67;;;0.90;;
51738;SDS011;37815;52.692;6.226;2024-02-23T19:55:31;2.45;;;1.40;;
51738;SDS011;37815;52.692;6.226;2024-02-23T20:00:32;1.70;;;1.08;;
51738;SDS011;37815;52.692;6.226;2024-02-23T20:05:32;2.25;;;1.05;;
51738;SDS011;37815;52.692;6.226;2024-02-23T20:10:33;2.35;;;0.98;;
51738;SDS011;37815;52.692;6.226;2024-02-23T20:15:34;2.58;;;0.90;;
51738;SDS011;37815;52.692;6.226;2024-02-23T20:20:35;2.00;;;1.00;;
51738;SDS011;37815;52.692;6.226;2024-02-23T20:25:40;1.38;;;0.90;;
51738;SDS011;37815;52.692;6.226;2024-02-23T20:30:41;2.38;;;0.98;;
51738;SDS011;37815;52.692;6.226;2024-02-23T20:35:42;2.13;;;1.00;;
51738;SDS011;37815;52.692;6.226;2024-02-23T20:40:43;1.75;;;0.75;;
51738;SDS011;37815;52.692;6.226;2024-02-23T20:45:46;2.47;;;1.10;;
51738;SDS011;37815;52.692;6.226;2024-02-23T20:50:46;1.45;;;0.90;;
51738;SDS011;37815;52.692;6.226;2024-02-23T20:55:47;3.40;;;1.30;;
51738;SDS011;37815;52.692;6.226;2024-02-23T21:00:48;4.88;;;1.70;;
51738;SDS011;37815;52.692;6.226;2024-02-23T21:05:48;1.83;;;1.00;;
51738;SDS011;37815;52.692;6.226;2024-02-23T21:10:49;2.20;;;0.90;;
51738;SDS011;37815;52.692;6.226;2024-02-23T21:15:49;2.53;;;0.95;;
51738;SDS011;37815;52.692;6.226;2024-02-23T21:20:50;1.95;;;1.00;;
51738;SDS011;37815;52.692;6.226;2024-02-23T21:25:51;2.67;;;1.10;;
51738;SDS011;37815;52.692;6.226;2024-02-23T21:30:51;1.42;;;0.93;;
51738;SDS011;37815;52.692;6.226;2024-02-23T21:35:55;2.50;;;1.00;;
51738;SDS011;37815;52.692;6.226;2024-02-23T21:40:55;3.90;;;1.10;;
51738;SDS011;37815;52.692;6.226;2024-02-23T21:45:58;1.23;;;1.00;;
51738;SDS011;37815;52.692;6.226;2024-02-23T21:50:58;1.88;;;1.20;;
51738;SDS011;37815;52.692;6.226;2024-02-23T21:55:59;1.42;;;1.08;;
51738;SDS011;37815;52.692;6.226;2024-02-23T22:01:01;1.90;;;0.98;;
51738;SDS011;37815;52.692;6.226;2024-02-23T22:06:02;2.00;;;1.00;;
51738;SDS011;37815;52.692;6.226;2024-02-23T22:11:02;1.17;;;0.85;;
51738;SDS011;37815;52.692;6.226;2024-02-23T22:16:03;1.80;;;0.90;;
51738;SDS011;37815;52.692;6.226;2024-02-23T22:21:04;1.13;;;0.93;;
51738;SDS011;37815;52.692;6.226;2024-02-23T22:26:05;2.33;;;0.98;;
51738;SDS011;37815;52.692;6.226;2024-02-23T22:31:05;4.25;;;1.23;;
51738;SDS011;37815;52.692;6.226;2024-02-23T22:36:06;1.90;;;1.05;;
51738;SDS011;37815;52.692;6.226;2024-02-23T22:41:06;3.63;;;1.23;;
51738;SDS011;37815;52.692;6.226;2024-02-23T22:46:07;3.50;;;0.88;;
51738;SDS011;37815;52.692;6.226;2024-02-23T22:51:08;4.13;;;1.25;;
51738;SDS011;37815;52.692;6.226;2024-02-23T22:56:08;1.17;;;1.00;;
51738;SDS011;37815;52.692;6.226;2024-02-23T23:01:09;4.13;;;1.48;;
51738;SDS011;37815;52.692;6.226;2024-02-23T23:06:09;1.73;;;0.98;;
51738;SDS011;37815;52.692;6.226;2024-02-23T23:11:11;2.42;;;1.13;;
51738;SDS011;37815;52.692;6.226;2024-02-23T23:16:13;1.88;;;0.90;;
51738;SDS011;37815;52.692;6.226;2024-02-23T23:21:14;2.25;;;0.95;;
51738;SDS011;37815;52.692;6.226;2024-02-23T23:26:15;2.45;;;1.20;;
51738;SDS011;37815;52.692;6.226;2024-02-23T23:31:18;2.25;;;1.17;;
51738;SDS011;37815;52.692;6.226;2024-02-23T23:36:18;1.60;;;1.00;;
51738;SDS011;37815;52.692;6.226;2024-02-23T23:41:19;1.55;;;1.00;;
51738;SDS011;37815;52.692;6.226;2024-02-23T23:46:19;1.42;;;0.90;;
51738;SDS011;37815;52.692;6.226;2024-02-23T23:51:20;2.45;;;0.90;;
51738;SDS011;37815;52.692;6.226;2024-02-23T23:56:23;3.78;;;1.10;;
